sensor_id;sensor_type;location;lat;lon;timestamp;temperature;humidity
1468;DHT22;727;48.892;9.544;2024-03-02T00:00:26;3.80;99.90
1468;DHT22;727;48.892;9.544;2024-03-02T00:02:53;3.80;99.90
1468;DHT22;727;48.892;9.544;2024-03-02T00:05:21;3.80;99.90
1468;DHT22;727;48.892;9.544;2024-03-02T00:07:54;3.80;99.90
1468;DHT22;727;48.892;9.544;2024-03-02T00:10:24;3.80;99.90
1468;DHT22;727;48.892;9.544;2024-03-02T00:12:54;3.80;99.90
1468;DHT22;727;48.892;9.544;2024-03-02T00:15:39;3.80;99.90
1468;DHT22;727;48.892;9.544;2024-03-02T00:18:08;3.80;99.90
1468;DHT22;727;48.892;9.544;2024-03-02T00:20:34;3.80;99.90
1468;DHT22;727;48.892;9.544;2024-03-02T00:23:04;3.80;99.90
1468;DHT22;727;48.892;9.544;2024-03-02T00:25:37;3.80;99.90
1468;DHT22;727;48.892;9.544;2024-03-02T00:28:04;3.80;99.90
1468;DHT22;727;48.892;9.544;2024-03-02T00:30:51;3.80;99.90
1468;DHT22;727;48.892;9.544;2024-03-02T00:33:19;3.90;99.90
1468;DHT22;727;48.892;9.544;2024-03-02T00:35:46;3.80;99.90
1468;DHT22;727;48.892;9.544;2024-03-02T00:38:14;3.80;99.90
1468;DHT22;727;48.892;9.544;2024-03-02T00:40:41;3.90;99.90
1468;DHT22;727;48.892;9.544;2024-03-02T00:43:19;3.80;99.90
1468;DHT22;727;48.892;9.544;2024-03-02T00:45:51;3.90;99.90
1468;DHT22;727;48.892;9.544;2024-03-02T00:48:17;3.90;99.90
1468;DHT22;727;48.892;9.544;2024-03-02T00:50:45;4.00;99.90
1468;DHT22;727;48.892;9.544;2024-03-02T00:53:14;4.00;99.90
1468;DHT22;727;48.892;9.544;2024-03-02T00:55:40;4.10;99.90
1468;DHT22;727;48.892;9.544;2024-03-02T00:58:09;4.10;99.90
1468;DHT22;727;48.892;9.544;2024-03-02T01:00:36;4.10;99.90
1468;DHT22;727;48.892;9.544;2024-03-02T01:03:03;4.10;99.90
1468;DHT22;727;48.892;9.544;2024-03-02T01:05:30;4.10;99.90
1468;DHT22;727;48.892;9.544;2024-03-02T01:07:57;4.10;99.90
1468;DHT22;727;48.892;9.544;2024-03-02T01:10:25;4.00;99.90
1468;DHT22;727;48.892;9.544;2024-03-02T01:12:52;4.00;99.90
1468;DHT22;727;48.892;9.544;2024-03-02T01:15:18;3.90;99.90
1468;DHT22;727;48.892;9.544;2024-03-02T01:17:46;3.90;99.90
1468;DHT22;727;48.892;9.544;2024-03-02T01:20:13;3.90;99.90
1468;DHT22;727;48.892;9.544;2024-03-02T01:22:39;3.90;99.90
1468;DHT22;727;48.892;9.544;2024-03-02T01:25:06;3.90;99.90
1468;DHT22;727;48.892;9.544;2024-03-02T01:27:36;3.90;99.90
1468;DHT22;727;48.892;9.544;2024-03-02T01:30:02;4.00;99.90
1468;DHT22;727;48.892;9.544;2024-03-02T01:32:29;4.00;99.90
1468;DHT22;727;48.892;9.544;2024-03-02T01:34:56;3.90;99.90
1468;DHT22;727;48.892;9.544;2024-03-02T01:37:22;3.90;99.90
1468;DHT22;727;48.892;9.544;2024-03-02T01:39:49;3.80;99.90
1468;DHT22;727;48.892;9.544;2024-03-02T01:42:16;3.80;99.90
1468;DHT22;727;48.892;9.544;2024-03-02T01:44:44;3.80;99.90
1468;DHT22;727;48.892;9.544;2024-03-02T01:47:10;3.90;99.90
1468;DHT22;727;48.892;9.544;2024-03-02T01:49:37;3.90;99.90
1468;DHT22;727;48.892;9.544;2024-03-02T01:52:06;4.00;99.90
1468;DHT22;727;48.892;9.544;2024-03-02T01:54:33;4.00;99.90
1468;DHT22;727;48.892;9.544;2024-03-02T01:57:00;4.00;99.90
1468;DHT22;727;48.892;9.544;2024-03-02T01:59:27;3.90;99.90
1468;DHT22;727;48.892;9.544;2024-03-02T02:01:55;3.90;99.90
1468;DHT22;727;48.892;9.544;2024-03-02T02:04:21;3.90;99.90
1468;DHT22;727;48.892;9.544;2024-03-02T02:06:52;3.90;99.90
1468;DHT22;727;48.892;9.544;2024-03-02T02:09:19;3.90;99.90
1468;DHT22;727;48.892;9.544;2024-03-02T02:11:45;3.90;99.90
1468;DHT22;727;48.892;9.544;2024-03-02T02:14:12;3.80;99.90
1468;DHT22;727;48.892;9.544;2024-03-02T02:16:39;3.80;99.90
1468;DHT22;727;48.892;9.544;2024-03-02T02:19:07;3.70;99.90
1468;DHT22;727;48.892;9.544;2024-03-02T02:21:36;3.70;99.90
1468;DHT22;727;48.892;9.544;2024-03-02T02:24:03;3.70;99.90
1468;DHT22;727;48.892;9.544;2024-03-02T02:26:30;3.70;99.90
1468;DHT22;727;48.892;9.544;2024-03-02T02:28:56;3.70;99.90
1468;DHT22;727;48.892;9.544;2024-03-02T02:31:23;3.70;99.90
1468;DHT22;727;48.892;9.544;2024-03-02T02:33:49;3.70;99.90
1468;DHT22;727;48.892;9.544;2024-03-02T02:36:16;3.70;99.90
1468;DHT22;727;48.892;9.544;2024-03-02T02:38:46;3.70;99.90
1468;DHT22;727;48.892;9.544;2024-03-02T02:41:14;3.70;99.90
1468;DHT22;727;48.892;9.544;2024-03-02T02:43:41;3.70;99.90
1468;DHT22;727;48.892;9.544;2024-03-02T02:46:07;3.60;99.90
1468;DHT22;727;48.892;9.544;2024-03-02T02:48:34;3.70;99.90
1468;DHT22;727;48.892;9.544;2024-03-02T02:51:01;3.70;99.90
1468;DHT22;727;48.892;9.544;2024-03-02T02:53:28;3.80;99.90
1468;DHT22;727;48.892;9.544;2024-03-02T02:55:56;3.80;99.90
1468;DHT22;727;48.892;9.544;2024-03-02T02:58:22;3.80;99.90
1468;DHT22;727;48.892;9.544;2024-03-02T03:00:49;3.70;99.90
1468;DHT22;727;48.892;9.544;2024-03-02T03:03:16;3.80;99.90
1468;DHT22;727;48.892;9.544;2024-03-02T03:05:42;3.70;99.90
1468;DHT22;727;48.892;9.544;2024-03-02T03:08:09;3.70;99.90
1468;DHT22;727;48.892;9.544;2024-03-02T03:10:36;3.80;99.90
1468;DHT22;727;48.892;9.544;2024-03-02T03:13:04;3.90;99.90
1468;DHT22;727;48.892;9.544;2024-03-02T03:15:34;3.90;99.90
1468;DHT22;727;48.892;9.544;2024-03-02T03:18:01;3.90;99.90
1468;DHT22;727;48.892;9.544;2024-03-02T03:20:29;4.00;99.90
1468;DHT22;727;48.892;9.544;2024-03-02T03:22:56;4.00;99.90
1468;DHT22;727;48.892;9.544;2024-03-02T03:25:22;4.10;99.90
1468;DHT22;727;48.892;9.544;2024-03-02T03:27:49;4.10;99.90
1468;DHT22;727;48.892;9.544;2024-03-02T03:30:19;4.10;99.90
1468;DHT22;727;48.892;9.544;2024-03-02T03:32:45;4.00;99.90
1468;DHT22;727;48.892;9.544;2024-03-02T03:35:13;4.00;99.90
1468;DHT22;727;48.892;9.544;2024-03-02T03:37:40;3.90;99.90
1468;DHT22;727;48.892;9.544;2024-03-02T03:40:08;3.90;99.90
1468;DHT22;727;48.892;9.544;2024-03-02T03:42:36;3.80;99.90
1468;DHT22;727;48.892;9.544;2024-03-02T03:45:03;3.70;99.90
1468;DHT22;727;48.892;9.544;2024-03-02T03:47:32;3.60;99.90
1468;DHT22;727;48.892;9.544;2024-03-02T03:49:59;3.60;99.90
1468;DHT22;727;48.892;9.544;2024-03-02T03:52:25;3.50;99.90
1468;DHT22;727;48.892;9.544;2024-03-02T03:54:52;3.50;99.90
1468;DHT22;727;48.892;9.544;2024-03-02T03:57:19;3.50;99.90
1468;DHT22;727;48.892;9.544;2024-03-02T03:59:46;3.50;99.90
1468;DHT22;727;48.892;9.544;2024-03-02T04:02:12;3.50;99.90
1468;DHT22;727;48.892;9.544;2024-03-02T04:04:40;3.50;99.90
1468;DHT22;727;48.892;9.544;2024-03-02T04:07:07;3.50;99.90
1468;DHT22;727;48.892;9.544;2024-03-02T04:09:34;3.50;99.90
1468;DHT22;727;48.892;9.544;2024-03-02T04:12:00;3.60;99.90
1468;DHT22;727;48.892;9.544;2024-03-02T04:14:27;3.60;99.90
1468;DHT22;727;48.892;9.544;2024-03-02T04:16:54;3.60;99.90
1468;DHT22;727;48.892;9.544;2024-03-02T04:19:21;3.50;99.90
1468;DHT22;727;48.892;9.544;2024-03-02T04:21:49;3.50;99.90
1468;DHT22;727;48.892;9.544;2024-03-02T04:24:15;3.50;99.90
1468;DHT22;727;48.892;9.544;2024-03-02T04:26:42;3.50;99.90
1468;DHT22;727;48.892;9.544;2024-03-02T04:29:08;3.50;99.90
1468;DHT22;727;48.892;9.544;2024-03-02T04:31:35;3.40;99.90
1468;DHT22;727;48.892;9.544;2024-03-02T04:34:02;3.40;99.90
1468;DHT22;727;48.892;9.544;2024-03-02T04:36:28;3.40;99.90
1468;DHT22;727;48.892;9.544;2024-03-02T04:38:56;3.40;99.90
1468;DHT22;727;48.892;9.544;2024-03-02T04:41:23;3.40;99.90
1468;DHT22;727;48.892;9.544;2024-03-02T04:43:49;3.40;99.90
1468;DHT22;727;48.892;9.544;2024-03-02T04:46:16;3.40;99.90
1468;DHT22;727;48.892;9.544;2024-03-02T04:48:43;3.40;99.90
1468;DHT22;727;48.892;9.544;2024-03-02T04:51:09;3.40;99.90
1468;DHT22;727;48.892;9.544;2024-03-02T04:53:36;3.40;99.90
1468;DHT22;727;48.892;9.544;2024-03-02T04:56:05;3.40;99.90
1468;DHT22;727;48.892;9.544;2024-03-02T04:59:04;3.40;99.90
1468;DHT22;727;48.892;9.544;2024-03-02T05:01:31;3.40;99.90
1468;DHT22;727;48.892;9.544;2024-03-02T05:03:58;3.40;99.90
1468;DHT22;727;48.892;9.544;2024-03-02T05:06:25;3.30;99.90
1468;DHT22;727;48.892;9.544;2024-03-02T05:08:51;3.30;99.90
1468;DHT22;727;48.892;9.544;2024-03-02T05:11:19;3.20;99.90
1468;DHT22;727;48.892;9.544;2024-03-02T05:14:10;3.20;99.90
1468;DHT22;727;48.892;9.544;2024-03-02T05:16:36;3.10;99.90
1468;DHT22;727;48.892;9.544;2024-03-02T05:19:04;3.10;99.90
1468;DHT22;727;48.892;9.544;2024-03-02T05:21:32;3.20;99.90
1468;DHT22;727;48.892;9.544;2024-03-02T05:23:58;3.20;99.90
1468;DHT22;727;48.892;9.544;2024-03-02T05:26:26;3.20;99.90
1468;DHT22;727;48.892;9.544;2024-03-02T05:28:53;3.20;99.90
1468;DHT22;727;48.892;9.544;2024-03-02T05:31:20;3.30;99.90
1468;DHT22;727;48.892;9.544;2024-03-02T05:33:46;3.30;99.90
1468;DHT22;727;48.892;9.544;2024-03-02T05:36:13;3.20;99.90
1468;DHT22;727;48.892;9.544;2024-03-02T05:38:39;3.10;99.90
1468;DHT22;727;48.892;9.544;2024-03-02T05:41:06;3.10;99.90
1468;DHT22;727;48.892;9.544;2024-03-02T05:43:34;3.10;99.90
1468;DHT22;727;48.892;9.544;2024-03-02T05:46:01;3.00;99.90
1468;DHT22;727;48.892;9.544;2024-03-02T05:48:28;3.00;99.90
1468;DHT22;727;48.892;9.544;2024-03-02T05:50:55;3.00;99.90
1468;DHT22;727;48.892;9.544;2024-03-02T05:53:22;3.00;99.90
1468;DHT22;727;48.892;9.544;2024-03-02T05:55:48;3.00;99.90
1468;DHT22;727;48.892;9.544;2024-03-02T05:58:18;3.00;99.90
1468;DHT22;727;48.892;9.544;2024-03-02T06:00:58;3.00;99.90
1468;DHT22;727;48.892;9.544;2024-03-02T06:03:24;2.90;99.90
1468;DHT22;727;48.892;9.544;2024-03-02T06:05:51;2.90;99.90
1468;DHT22;727;48.892;9.544;2024-03-02T06:08:18;2.90;99.90
1468;DHT22;727;48.892;9.544;2024-03-02T06:10:44;2.80;99.90
1468;DHT22;727;48.892;9.544;2024-03-02T06:13:11;2.80;99.90
1468;DHT22;727;48.892;9.544;2024-03-02T06:15:38;2.90;99.90
1468;DHT22;727;48.892;9.544;2024-03-02T06:18:06;2.80;99.90
1468;DHT22;727;48.892;9.544;2024-03-02T06:20:33;2.70;99.90
1468;DHT22;727;48.892;9.544;2024-03-02T06:22:59;2.70;99.90
1468;DHT22;727;48.892;9.544;2024-03-02T06:25:26;2.70;99.90
1468;DHT22;727;48.892;9.544;2024-03-02T06:27:53;2.70;99.90
1468;DHT22;727;48.892;9.544;2024-03-02T06:30:20;2.70;99.90
1468;DHT22;727;48.892;9.544;2024-03-02T06:32:46;2.70;99.90
1468;DHT22;727;48.892;9.544;2024-03-02T06:35:14;2.80;99.90
1468;DHT22;727;48.892;9.544;2024-03-02T06:37:41;2.80;99.90
1468;DHT22;727;48.892;9.544;2024-03-02T06:40:08;2.90;99.90
1468;DHT22;727;48.892;9.544;2024-03-02T06:42:35;2.90;99.90
1468;DHT22;727;48.892;9.544;2024-03-02T06:45:02;2.90;99.90
1468;DHT22;727;48.892;9.544;2024-03-02T06:47:29;2.90;99.90
1468;DHT22;727;48.892;9.544;2024-03-02T06:49:56;2.90;99.90
1468;DHT22;727;48.892;9.544;2024-03-02T06:52:25;3.00;99.90
1468;DHT22;727;48.892;9.544;2024-03-02T06:54:51;3.00;99.90
1468;DHT22;727;48.892;9.544;2024-03-02T06:57:18;3.00;99.90
1468;DHT22;727;48.892;9.544;2024-03-02T06:59:46;3.10;99.90
1468;DHT22;727;48.892;9.544;2024-03-02T07:02:12;3.20;99.90
1468;DHT22;727;48.892;9.544;2024-03-02T07:04:39;3.20;99.90
1468;DHT22;727;48.892;9.544;2024-03-02T07:07:06;3.30;99.90
1468;DHT22;727;48.892;9.544;2024-03-02T07:09:33;3.30;99.90
1468;DHT22;727;48.892;9.544;2024-03-02T07:12:00;3.40;99.90
1468;DHT22;727;48.892;9.544;2024-03-02T07:14:27;3.50;99.90
1468;DHT22;727;48.892;9.544;2024-03-02T07:17:20;3.50;99.90
1468;DHT22;727;48.892;9.544;2024-03-02T07:19:47;3.60;99.90
1468;DHT22;727;48.892;9.544;2024-03-02T07:22:14;3.60;99.90
1468;DHT22;727;48.892;9.544;2024-03-02T07:24:42;3.70;99.90
1468;DHT22;727;48.892;9.544;2024-03-02T07:27:08;3.80;99.90
1468;DHT22;727;48.892;9.544;2024-03-02T07:29:35;3.90;99.90
1468;DHT22;727;48.892;9.544;2024-03-02T07:32:02;4.00;99.90
1468;DHT22;727;48.892;9.544;2024-03-02T07:34:29;4.20;99.90
1468;DHT22;727;48.892;9.544;2024-03-02T07:36:56;4.30;99.90
1468;DHT22;727;48.892;9.544;2024-03-02T07:39:23;4.60;99.90
1468;DHT22;727;48.892;9.544;2024-03-02T07:41:51;4.80;99.90
1468;DHT22;727;48.892;9.544;2024-03-02T07:44:18;5.00;99.90
1468;DHT22;727;48.892;9.544;2024-03-02T07:46:46;5.30;99.90
1468;DHT22;727;48.892;9.544;2024-03-02T07:49:13;5.60;99.90
1468;DHT22;727;48.892;9.544;2024-03-02T07:51:40;6.10;99.90
1468;DHT22;727;48.892;9.544;2024-03-02T07:54:06;6.60;99.90
1468;DHT22;727;48.892;9.544;2024-03-02T07:56:33;7.20;99.90
1468;DHT22;727;48.892;9.544;2024-03-02T07:59:01;7.80;99.90
1468;DHT22;727;48.892;9.544;2024-03-02T08:01:28;8.10;99.90
1468;DHT22;727;48.892;9.544;2024-03-02T08:03:56;8.70;99.90
1468;DHT22;727;48.892;9.544;2024-03-02T08:06:24;9.00;99.90
1468;DHT22;727;48.892;9.544;2024-03-02T08:08:53;9.10;99.90
1468;DHT22;727;48.892;9.544;2024-03-02T08:11:19;9.40;99.90
1468;DHT22;727;48.892;9.544;2024-03-02T08:13:46;9.90;99.90
1468;DHT22;727;48.892;9.544;2024-03-02T08:16:14;10.40;99.90
1468;DHT22;727;48.892;9.544;2024-03-02T08:18:41;10.90;99.90
1468;DHT22;727;48.892;9.544;2024-03-02T08:21:08;11.60;99.90
1468;DHT22;727;48.892;9.544;2024-03-02T08:23:35;12.50;99.90
1468;DHT22;727;48.892;9.544;2024-03-02T08:26:01;12.80;99.70
1468;DHT22;727;48.892;9.544;2024-03-02T08:28:28;13.00;98.90
1468;DHT22;727;48.892;9.544;2024-03-02T08:30:55;12.80;98.10
1468;DHT22;727;48.892;9.544;2024-03-02T08:33:23;12.80;98.10
1468;DHT22;727;48.892;9.544;2024-03-02T08:35:50;12.60;97.80
1468;DHT22;727;48.892;9.544;2024-03-02T08:38:17;12.50;98.40
1468;DHT22;727;48.892;9.544;2024-03-02T08:40:44;12.30;98.50
1468;DHT22;727;48.892;9.544;2024-03-02T08:43:11;12.00;99.00
1468;DHT22;727;48.892;9.544;2024-03-02T08:45:37;11.80;99.10
1468;DHT22;727;48.892;9.544;2024-03-02T08:48:06;11.90;99.80
1468;DHT22;727;48.892;9.544;2024-03-02T08:50:35;11.90;99.90
1468;DHT22;727;48.892;9.544;2024-03-02T08:53:03;12.30;99.90
1468;DHT22;727;48.892;9.544;2024-03-02T08:55:29;12.50;99.90
1468;DHT22;727;48.892;9.544;2024-03-02T08:57:56;13.40;99.30
1468;DHT22;727;48.892;9.544;2024-03-02T09:00:23;13.90;97.50
1468;DHT22;727;48.892;9.544;2024-03-02T09:02:50;14.20;97.00
1468;DHT22;727;48.892;9.544;2024-03-02T09:05:17;14.80;96.40
1468;DHT22;727;48.892;9.544;2024-03-02T09:07:45;14.70;95.10
1468;DHT22;727;48.892;9.544;2024-03-02T09:10:12;14.10;95.40
1468;DHT22;727;48.892;9.544;2024-03-02T09:12:39;13.80;95.80
1468;DHT22;727;48.892;9.544;2024-03-02T09:15:06;13.30;96.70
1468;DHT22;727;48.892;9.544;2024-03-02T09:17:33;12.80;97.40
1468;DHT22;727;48.892;9.544;2024-03-02T09:19:59;12.50;98.20
1468;DHT22;727;48.892;9.544;2024-03-02T09:22:26;12.30;99.10
1468;DHT22;727;48.892;9.544;2024-03-02T09:24:54;12.20;99.20
1468;DHT22;727;48.892;9.544;2024-03-02T09:27:20;12.10;99.70
1468;DHT22;727;48.892;9.544;2024-03-02T09:29:47;12.20;99.80
1468;DHT22;727;48.892;9.544;2024-03-02T09:32:14;12.30;99.60
1468;DHT22;727;48.892;9.544;2024-03-02T09:34:41;12.60;99.90
1468;DHT22;727;48.892;9.544;2024-03-02T09:37:08;13.20;99.30
1468;DHT22;727;48.892;9.544;2024-03-02T09:39:35;14.30;98.40
1468;DHT22;727;48.892;9.544;2024-03-02T09:42:04;15.40;96.50
1468;DHT22;727;48.892;9.544;2024-03-02T09:44:31;15.90;93.80
1468;DHT22;727;48.892;9.544;2024-03-02T09:46:59;17.00;92.50
1468;DHT22;727;48.892;9.544;2024-03-02T09:49:26;18.00;90.60
1468;DHT22;727;48.892;9.544;2024-03-02T09:51:53;18.90;88.60
1468;DHT22;727;48.892;9.544;2024-03-02T09:54:20;19.30;83.80
1468;DHT22;727;48.892;9.544;2024-03-02T09:56:46;20.40;81.00
1468;DHT22;727;48.892;9.544;2024-03-02T09:59:14;21.40;76.20
1468;DHT22;727;48.892;9.544;2024-03-02T10:01:56;21.90;73.60
1468;DHT22;727;48.892;9.544;2024-03-02T10:04:24;21.80;71.70
1468;DHT22;727;48.892;9.544;2024-03-02T10:06:51;21.80;72.50
1468;DHT22;727;48.892;9.544;2024-03-02T10:09:27;22.00;71.30
1468;DHT22;727;48.892;9.544;2024-03-02T10:12:03;22.40;68.10
1468;DHT22;727;48.892;9.544;2024-03-02T10:14:32;23.20;66.00
1468;DHT22;727;48.892;9.544;2024-03-02T10:17:02;23.70;59.80
1468;DHT22;727;48.892;9.544;2024-03-02T10:19:29;24.10;58.80
1468;DHT22;727;48.892;9.544;2024-03-02T10:21:58;24.10;57.50
1468;DHT22;727;48.892;9.544;2024-03-02T10:24:26;24.40;57.20
1468;DHT22;727;48.892;9.544;2024-03-02T10:26:53;25.00;56.30
1468;DHT22;727;48.892;9.544;2024-03-02T10:29:21;24.90;55.40
1468;DHT22;727;48.892;9.544;2024-03-02T10:31:49;24.60;55.30
1468;DHT22;727;48.892;9.544;2024-03-02T10:34:16;24.70;55.20
1468;DHT22;727;48.892;9.544;2024-03-02T10:36:43;24.90;54.90
1468;DHT22;727;48.892;9.544;2024-03-02T10:39:12;24.60;56.30
1468;DHT22;727;48.892;9.544;2024-03-02T10:41:39;24.50;55.20
1468;DHT22;727;48.892;9.544;2024-03-02T10:44:07;24.90;54.90
1468;DHT22;727;48.892;9.544;2024-03-02T10:46:35;25.20;54.90
1468;DHT22;727;48.892;9.544;2024-03-02T10:49:05;25.10;54.10
1468;DHT22;727;48.892;9.544;2024-03-02T10:51:33;25.70;53.30
1468;DHT22;727;48.892;9.544;2024-03-02T10:54:02;25.90;52.70
1468;DHT22;727;48.892;9.544;2024-03-02T10:56:30;26.00;52.00
1468;DHT22;727;48.892;9.544;2024-03-02T10:59:02;26.00;51.70
1468;DHT22;727;48.892;9.544;2024-03-02T11:01:30;26.50;51.70
1468;DHT22;727;48.892;9.544;2024-03-02T11:03:58;26.80;49.60
1468;DHT22;727;48.892;9.544;2024-03-02T11:06:28;25.80;49.80
1468;DHT22;727;48.892;9.544;2024-03-02T11:09:00;26.30;50.60
1468;DHT22;727;48.892;9.544;2024-03-02T11:11:32;26.50;50.20
1468;DHT22;727;48.892;9.544;2024-03-02T11:14:04;26.10;48.40
1468;DHT22;727;48.892;9.544;2024-03-02T11:16:35;25.90;47.90
1468;DHT22;727;48.892;9.544;2024-03-02T11:19:04;25.90;47.50
1468;DHT22;727;48.892;9.544;2024-03-02T11:21:33;26.10;47.80
1468;DHT22;727;48.892;9.544;2024-03-02T11:24:00;25.90;47.60
1468;DHT22;727;48.892;9.544;2024-03-02T11:26:42;26.30;47.80
1468;DHT22;727;48.892;9.544;2024-03-02T11:29:09;26.90;46.70
1468;DHT22;727;48.892;9.544;2024-03-02T11:31:58;26.70;45.90
1468;DHT22;727;48.892;9.544;2024-03-02T11:34:29;26.60;46.40
1468;DHT22;727;48.892;9.544;2024-03-02T11:36:57;25.80;47.20
1468;DHT22;727;48.892;9.544;2024-03-02T11:39:25;26.80;47.10
1468;DHT22;727;48.892;9.544;2024-03-02T11:41:52;27.10;45.20
1468;DHT22;727;48.892;9.544;2024-03-02T11:44:19;27.20;44.50
1468;DHT22;727;48.892;9.544;2024-03-02T11:46:45;26.70;44.50
1468;DHT22;727;48.892;9.544;2024-03-02T11:49:14;26.80;44.20
1468;DHT22;727;48.892;9.544;2024-03-02T11:51:51;27.10;43.80
1468;DHT22;727;48.892;9.544;2024-03-02T11:54:21;27.60;43.30
1468;DHT22;727;48.892;9.544;2024-03-02T11:56:47;27.40;43.50
1468;DHT22;727;48.892;9.544;2024-03-02T11:59:14;27.40;43.60
1468;DHT22;727;48.892;9.544;2024-03-02T12:01:41;27.00;44.00
1468;DHT22;727;48.892;9.544;2024-03-02T12:04:10;26.80;44.00
1468;DHT22;727;48.892;9.544;2024-03-02T12:06:37;26.50;44.40
1468;DHT22;727;48.892;9.544;2024-03-02T12:09:04;27.00;44.60
1468;DHT22;727;48.892;9.544;2024-03-02T12:11:33;27.00;43.30
1468;DHT22;727;48.892;9.544;2024-03-02T12:13:59;25.80;44.40
1468;DHT22;727;48.892;9.544;2024-03-02T12:16:26;26.00;44.60
1468;DHT22;727;48.892;9.544;2024-03-02T12:18:53;25.60;44.20
1468;DHT22;727;48.892;9.544;2024-03-02T12:21:19;25.20;44.60
1468;DHT22;727;48.892;9.544;2024-03-02T12:23:46;25.30;45.30
1468;DHT22;727;48.892;9.544;2024-03-02T12:26:13;25.60;45.30
1468;DHT22;727;48.892;9.544;2024-03-02T12:28:41;25.90;44.60
1468;DHT22;727;48.892;9.544;2024-03-02T12:31:08;25.80;44.60
1468;DHT22;727;48.892;9.544;2024-03-02T12:33:34;26.40;44.30
1468;DHT22;727;48.892;9.544;2024-03-02T12:36:01;26.80;43.40
1468;DHT22;727;48.892;9.544;2024-03-02T12:38:28;26.50;43.00
1468;DHT22;727;48.892;9.544;2024-03-02T12:40:55;26.80;42.70
1468;DHT22;727;48.892;9.544;2024-03-02T12:43:21;26.80;42.50
1468;DHT22;727;48.892;9.544;2024-03-02T12:45:50;26.50;42.70
1468;DHT22;727;48.892;9.544;2024-03-02T12:48:17;25.90;43.20
1468;DHT22;727;48.892;9.544;2024-03-02T12:50:44;25.70;43.00
1468;DHT22;727;48.892;9.544;2024-03-02T12:53:14;24.90;43.30
1468;DHT22;727;48.892;9.544;2024-03-02T12:55:42;24.60;44.10
1468;DHT22;727;48.892;9.544;2024-03-02T12:58:15;24.30;44.60
1468;DHT22;727;48.892;9.544;2024-03-02T13:00:42;24.50;44.60
1468;DHT22;727;48.892;9.544;2024-03-02T13:03:11;24.10;44.80
1468;DHT22;727;48.892;9.544;2024-03-02T13:05:39;23.90;44.30
1468;DHT22;727;48.892;9.544;2024-03-02T13:08:06;24.20;43.40
1468;DHT22;727;48.892;9.544;2024-03-02T13:10:33;23.80;43.00
1468;DHT22;727;48.892;9.544;2024-03-02T13:13:00;24.20;43.90
1468;DHT22;727;48.892;9.544;2024-03-02T13:15:27;24.30;43.00
1468;DHT22;727;48.892;9.544;2024-03-02T13:17:54;24.70;42.80
1468;DHT22;727;48.892;9.544;2024-03-02T13:20:31;24.90;42.70
1468;DHT22;727;48.892;9.544;2024-03-02T13:22:58;25.40;42.30
1468;DHT22;727;48.892;9.544;2024-03-02T13:25:24;25.30;41.80
1468;DHT22;727;48.892;9.544;2024-03-02T13:27:52;25.70;40.90
1468;DHT22;727;48.892;9.544;2024-03-02T13:30:18;25.90;40.70
1468;DHT22;727;48.892;9.544;2024-03-02T13:32:45;26.40;40.20
1468;DHT22;727;48.892;9.544;2024-03-02T13:35:12;26.70;39.90
1468;DHT22;727;48.892;9.544;2024-03-02T13:37:40;26.20;39.30
1468;DHT22;727;48.892;9.544;2024-03-02T13:40:07;25.80;40.70
1468;DHT22;727;48.892;9.544;2024-03-02T13:42:38;26.00;41.50
1468;DHT22;727;48.892;9.544;2024-03-02T13:45:06;26.60;41.40
1468;DHT22;727;48.892;9.544;2024-03-02T13:47:32;26.60;41.90
1468;DHT22;727;48.892;9.544;2024-03-02T13:49:59;26.10;41.90
1468;DHT22;727;48.892;9.544;2024-03-02T13:52:28;25.60;41.90
1468;DHT22;727;48.892;9.544;2024-03-02T13:54:56;25.20;43.20
1468;DHT22;727;48.892;9.544;2024-03-02T13:57:23;24.90;43.90
1468;DHT22;727;48.892;9.544;2024-03-02T13:59:50;24.40;43.90
1468;DHT22;727;48.892;9.544;2024-03-02T14:02:17;23.80;44.70
1468;DHT22;727;48.892;9.544;2024-03-02T14:04:44;23.50;44.50
1468;DHT22;727;48.892;9.544;2024-03-02T14:07:11;22.80;46.10
1468;DHT22;727;48.892;9.544;2024-03-02T14:09:38;21.70;47.30
1468;DHT22;727;48.892;9.544;2024-03-02T14:12:07;20.60;48.60
1468;DHT22;727;48.892;9.544;2024-03-02T14:14:33;20.00;49.00
1468;DHT22;727;48.892;9.544;2024-03-02T14:17:00;19.70;50.00
1468;DHT22;727;48.892;9.544;2024-03-02T14:19:29;19.40;50.80
1468;DHT22;727;48.892;9.544;2024-03-02T14:21:56;19.00;50.80
1468;DHT22;727;48.892;9.544;2024-03-02T14:24:23;18.80;51.00
1468;DHT22;727;48.892;9.544;2024-03-02T14:26:51;18.50;50.30
1468;DHT22;727;48.892;9.544;2024-03-02T14:29:19;18.40;50.60
1468;DHT22;727;48.892;9.544;2024-03-02T14:31:46;18.20;50.30
1468;DHT22;727;48.892;9.544;2024-03-02T14:34:13;18.20;50.20
1468;DHT22;727;48.892;9.544;2024-03-02T14:36:40;17.90;50.50
1468;DHT22;727;48.892;9.544;2024-03-02T14:39:09;17.80;50.20
1468;DHT22;727;48.892;9.544;2024-03-02T14:41:37;17.70;50.80
1468;DHT22;727;48.892;9.544;2024-03-02T14:44:03;17.60;50.80
1468;DHT22;727;48.892;9.544;2024-03-02T14:46:31;17.70;52.40
1468;DHT22;727;48.892;9.544;2024-03-02T14:48:59;17.80;53.60
1468;DHT22;727;48.892;9.544;2024-03-02T14:51:25;17.60;55.50
1468;DHT22;727;48.892;9.544;2024-03-02T14:53:52;17.40;56.90
1468;DHT22;727;48.892;9.544;2024-03-02T14:56:19;17.10;56.60
1468;DHT22;727;48.892;9.544;2024-03-02T14:58:45;17.00;56.90
1468;DHT22;727;48.892;9.544;2024-03-02T15:01:12;16.90;57.10
1468;DHT22;727;48.892;9.544;2024-03-02T15:03:40;16.80;57.60
1468;DHT22;727;48.892;9.544;2024-03-02T15:06:07;16.70;58.10
1468;DHT22;727;48.892;9.544;2024-03-02T15:08:35;16.60;58.50
1468;DHT22;727;48.892;9.544;2024-03-02T15:11:02;16.50;59.00
1468;DHT22;727;48.892;9.544;2024-03-02T15:13:29;16.30;59.80
1468;DHT22;727;48.892;9.544;2024-03-02T15:15:56;16.20;60.00
1468;DHT22;727;48.892;9.544;2024-03-02T15:18:22;16.30;60.30
1468;DHT22;727;48.892;9.544;2024-03-02T15:20:50;16.20;59.60
1468;DHT22;727;48.892;9.544;2024-03-02T15:23:17;16.20;59.60
1468;DHT22;727;48.892;9.544;2024-03-02T15:25:44;16.10;60.00
1468;DHT22;727;48.892;9.544;2024-03-02T15:28:10;16.00;59.70
1468;DHT22;727;48.892;9.544;2024-03-02T15:30:37;16.00;60.00
1468;DHT22;727;48.892;9.544;2024-03-02T15:33:04;15.90;60.40
1468;DHT22;727;48.892;9.544;2024-03-02T15:35:31;15.80;61.20
1468;DHT22;727;48.892;9.544;2024-03-02T15:37:59;15.80;62.10
1468;DHT22;727;48.892;9.544;2024-03-02T15:40:25;15.70;63.20
1468;DHT22;727;48.892;9.544;2024-03-02T15:42:52;15.70;62.90
1468;DHT22;727;48.892;9.544;2024-03-02T15:45:18;15.60;62.70
1468;DHT22;727;48.892;9.544;2024-03-02T15:47:45;15.50;62.60
1468;DHT22;727;48.892;9.544;2024-03-02T15:50:12;15.30;62.30
1468;DHT22;727;48.892;9.544;2024-03-02T15:52:40;15.20;63.70
1468;DHT22;727;48.892;9.544;2024-03-02T15:55:09;15.10;64.80
1468;DHT22;727;48.892;9.544;2024-03-02T15:57:35;15.00;66.80
1468;DHT22;727;48.892;9.544;2024-03-02T16:00:03;14.80;68.30
1468;DHT22;727;48.892;9.544;2024-03-02T16:02:30;14.70;69.40
1468;DHT22;727;48.892;9.544;2024-03-02T16:04:57;14.60;69.60
1468;DHT22;727;48.892;9.544;2024-03-02T16:07:24;14.50;69.70
1468;DHT22;727;48.892;9.544;2024-03-02T16:09:50;14.40;70.80
1468;DHT22;727;48.892;9.544;2024-03-02T16:12:18;14.20;72.00
1468;DHT22;727;48.892;9.544;2024-03-02T16:14:45;14.20;72.10
1468;DHT22;727;48.892;9.544;2024-03-02T16:17:11;14.10;73.20
1468;DHT22;727;48.892;9.544;2024-03-02T16:19:38;14.00;74.10
1468;DHT22;727;48.892;9.544;2024-03-02T16:22:06;13.90;74.40
1468;DHT22;727;48.892;9.544;2024-03-02T16:24:36;13.80;75.30
1468;DHT22;727;48.892;9.544;2024-03-02T16:27:03;13.60;76.50
1468;DHT22;727;48.892;9.544;2024-03-02T16:29:31;13.50;77.30